Time;durP1;ratioP1;P1;durP2;ratioP2;P2;SDS_P1;SDS_P2;PMS_P1;PMS_P2;Temp;Humidity;BMP_temperature;BMP_pressure;BME280_temperature;BME280_humidity;BME280_pressure;Samples;Min_cycle;Max_cycle;Signal;HPM_P1;HPM_P2
2021/03/12 00:01:47;;;;;;;5.28;1.52;;;;;;;7.82;95.45;99031.94;4994943;28;20042;-74
2021/03/12 00:04:12;;;;;;;2.22;1.50;;;;;;;7.88;94.91;99041.16;5002660;28;20052;-73
2021/03/12 00:06:38;;;;;;;6.22;1.73;;;;;;;7.73;96.07;99025.41;4993270;28;20038;-74
2021/03/12 00:09:05;;;;;;;5.05;1.60;;;;;;;7.74;95.74;99035.72;4989519;28;20039;-74
2021/03/12 00:11:30;;;;;;;6.72;1.45;;;;;;;7.62;95.79;99040.66;4998829;28;20053;-74
2021/03/12 00:13:55;;;;;;;6.78;1.40;;;;;;;7.73;96.11;99047.59;4982993;28;20034;-74
2021/03/12 00:16:21;;;;;;;6.93;2.03;;;;;;;7.82;95.76;99053.38;4980950;28;20041;-74
2021/03/12 00:18:47;;;;;;;4.72;1.63;;;;;;;7.83;95.74;99062.19;4991934;28;20153;-74
2021/03/12 00:21:14;;;;;;;5.10;1.38;;;;;;;7.88;95.29;99064.50;4994174;28;20038;-74
2021/03/12 00:23:42;;;;;;;6.72;1.63;;;;;;;7.77;96.49;99074.41;4988597;28;20042;-74
2021/03/12 00:26:08;;;;;;;4.10;1.35;;;;;;;7.96;95.40;99080.25;4991312;28;20543;-73
2021/03/12 00:28:35;;;;;;;2.20;1.38;;;;;;;7.89;95.44;99072.19;4993096;28;20064;-74
2021/03/12 00:31:03;;;;;;;4.85;1.30;;;;;;;7.90;96.01;99079.06;4991989;28;20022;-74
2021/03/12 00:33:30;;;;;;;2.08;1.20;;;;;;;7.92;95.41;99078.69;4994132;28;20063;-74
2021/03/12 00:35:56;;;;;;;2.75;1.40;;;;;;;7.90;95.59;99087.13;4998885;28;20398;-73
2021/03/12 00:38:22;;;;;;;4.82;1.40;;;;;;;7.91;95.46;99087.91;4981608;28;20064;-75
2021/03/12 00:40:53;;;;;;;3.15;1.35;;;;;;;7.85;95.51;99094.75;4988302;28;20033;-74
2021/03/12 00:43:21;;;;;;;2.25;1.08;;;;;;;7.88;95.54;99104.72;4992411;28;20046;-75
2021/03/12 00:45:57;;;;;;;2.72;1.20;;;;;;;7.98;94.68;99104.78;4968027;28;20027;-74
2021/03/12 00:48:23;;;;;;;5.78;1.25;;;;;;;7.85;94.76;99097.44;4999450;28;20453;-74
2021/03/12 00:50:49;;;;;;;7.38;1.42;;;;;;;7.85;95.64;99092.84;4991867;28;20030;-74
2021/03/12 00:53:21;;;;;;;;;;;;;;;7.87;95.21;99100.50;4994311;28;20038;-72
2021/03/12 00:55:47;;;;;;;3.08;1.30;;;;;;;7.92;95.20;99098.22;4994350;28;19913;-74
2021/03/12 00:58:17;;;;;;;4.43;1.30;;;;;;;8.02;94.68;99107.47;4992799;28;20030;-74
2021/03/12 01:00:49;;;;;;;2.75;1.35;;;;;;;7.89;95.19;99104.34;4974156;28;20035;-73
2021/03/12 01:03:15;;;;;;;7.30;1.67;;;;;;;7.94;95.25;99105.88;5001048;28;20171;-72
2021/03/12 01:05:45;;;;;;;6.30;1.65;;;;;;;7.88;94.88;99110.06;4992522;28;20089;-74
2021/03/12 01:08:18;;;;;;;5.65;1.40;;;;;;;7.93;94.65;99115.88;4993845;28;20054;-74
2021/03/12 01:10:43;;;;;;;2.78;1.25;;;;;;;7.91;94.65;99104.75;4988920;28;20029;-73
2021/03/12 01:13:10;;;;;;;4.15;1.05;;;;;;;7.97;94.61;99115.88;4984080;28;20039;-75
2021/03/12 01:15:36;;;;;;;5.07;1.40;;;;;;;7.97;94.66;99110.53;4993808;28;20092;-74
2021/03/12 01:18:11;;;;;;;4.72;1.42;;;;;;;7.92;94.61;99117.00;4980608;28;20027;-74
2021/03/12 01:20:39;;;;;;;7.30;1.60;;;;;;;7.99;95.43;99127.00;4996290;28;20065;-74
2021/03/12 01:23:08;;;;;;;1.98;1.20;;;;;;;7.85;95.97;99122.31;5001134;28;20076;-74
2021/03/12 01:25:38;;;;;;;2.67;1.05;;;;;;;7.80;96.27;99129.94;4987864;28;20023;-74
2021/03/12 01:28:04;;;;;;;4.70;1.40;;;;;;;7.96;96.08;99130.41;4985550;28;20022;-74
2021/03/12 01:30:39;;;;;;;4.65;1.30;;;;;;;7.98;95.99;99138.84;4988574;28;20420;-73
2021/03/12 01:33:23;;;;;;;5.63;1.58;;;;;;;7.94;96.20;99127.34;4984540;28;20030;-74
2021/03/12 01:35:48;;;;;;;5.95;1.40;;;;;;;7.95;95.80;99126.97;4973284;28;20029;-73
2021/03/12 01:38:15;;;;;;;6.63;1.40;;;;;;;7.94;95.99;99124.66;4981217;28;20037;-74
2021/03/12 01:40:46;;;;;;;4.63;1.33;;;;;;;7.93;95.47;99121.22;4995330;28;20033;-73
2021/03/12 01:43:12;;;;;;;;;;;;;;;7.91;95.50;99120.81;4992468;28;20026;-74
2021/03/12 01:45:42;;;;;;;5.53;1.60;;;;;;;7.81;95.18;99123.44;4992175;28;19925;-74
2021/03/12 01:48:13;;;;;;;6.55;2.13;;;;;;;7.85;95.06;99134.94;4990314;28;20495;-74
2021/03/12 01:50:42;;;;;;;2.63;1.60;;;;;;;7.78;95.60;99127.63;4993308;28;20042;-74
2021/03/12 01:53:15;;;;;;;2.85;1.48;;;;;;;7.88;94.55;99129.59;4986727;28;20057;-74
2021/03/12 01:55:41;;;;;;;10.18;1.63;;;;;;;7.85;94.90;99124.22;4992941;28;20394;-74
2021/03/12 01:58:09;;;;;;;5.80;1.50;;;;;;;7.85;94.65;99134.94;5000744;28;20113;-74
2021/03/12 02:00:40;;;;;;;7.13;1.60;;;;;;;7.80;95.08;99135.31;4991511;28;20038;-74
2021/03/12 02:03:22;;;;;;;7.70;1.60;;;;;;;7.76;95.09;99131.84;4988996;28;20033;-74
2021/03/12 02:05:56;;;;;;;7.10;1.90;;;;;;;7.89;94.69;99139.19;4992682;28;20443;-74
2021/03/12 02:08:22;;;;;;;7.32;1.50;;;;;;;7.86;94.51;99133.78;4990087;28;20137;-74
2021/03/12 02:10:56;;;;;;;7.65;1.75;;;;;;;7.94;94.19;99140.72;4990467;28;20193;-73
2021/03/12 02:13:34;;;;;;;8.10;1.90;;;;;;;7.94;94.25;99141.50;4980203;28;20541;-74
2021/03/12 02:16:38;;;;;;;9.30;1.90;;;;;;;7.98;93.89;99144.19;4992464;28;20398;-74
2021/03/12 02:19:37;;;;;;;8.23;2.50;;;;;;;7.98;93.52;99154.91;4987325;28;20415;-74
2021/03/12 02:22:05;;;;;;;10.15;1.55;;;;;;;7.69;95.11;99167.38;5010377;28;20042;-74
2021/03/12 02:24:33;;;;;;;5.57;1.98;;;;;;;7.70;95.33;99155.53;5005081;28;20411;-74
2021/03/12 02:27:07;;;;;;;6.80;1.88;;;;;;;7.88;94.30;99160.97;4990587;28;20031;-74
2021/03/12 02:29:48;;;;;;;14.80;1.88;;;;;;;8.03;93.93;99152.66;4990437;28;20121;-71
2021/03/12 02:32:18;;;;;;;4.68;2.03;;;;;;;7.91;94.59;99161.03;4982391;28;20503;-74
2021/03/12 02:34:48;;;;;;;;;;;;;;;7.96;93.73;99163.34;4992212;28;20030;-72
2021/03/12 02:37:20;;;;;;;7.07;3.13;;;;;;;8.04;93.20;99158.78;4986910;28;20399;-74
2021/03/12 02:39:55;;;;;;;;;;;;;;;7.91;93.63;99173.66;4993764;23;20690;-76
2021/03/12 02:42:27;;;;;;;9.88;2.60;;;;;;;7.96;93.46;99166.03;4985970;28;19922;-76
2021/03/12 02:44:58;;;;;;;8.00;1.95;;;;;;;7.86;94.08;99174.75;4983617;28;20041;-76
2021/03/12 02:47:27;;;;;;;11.18;1.98;;;;;;;7.88;94.81;99166.34;4985566;28;20050;-75
2021/03/12 02:49:58;;;;;;;7.72;1.98;;;;;;;7.80;94.50;99168.22;4982314;28;20034;-76
2021/03/12 02:52:24;;;;;;;7.95;2.10;;;;;;;7.82;94.75;99190.03;4993158;28;20471;-76
2021/03/12 02:54:51;;;;;;;6.20;2.25;;;;;;;7.68;95.47;99175.78;4986216;28;20053;-76
2021/03/12 02:57:23;;;;;;;9.50;2.17;;;;;;;7.81;95.27;99187.75;4976674;28;20030;-76
2021/03/12 02:59:54;;;;;;;5.88;2.00;;;;;;;7.87;95.14;99183.56;4983643;28;20042;-76
2021/03/12 03:02:38;;;;;;;11.35;2.25;;;;;;;7.97;94.84;99186.34;4973848;28;20126;-76
2021/03/12 03:05:25;;;;;;;9.98;2.60;;;;;;;7.91;94.82;99190.50;4975566;28;20065;-76
2021/03/12 03:07:55;;;;;;;10.80;2.72;;;;;;;7.95;94.48;99193.97;4983438;28;20498;-76
2021/03/12 03:10:22;;;;;;;7.45;2.72;;;;;;;7.97;94.96;99190.91;4973577;28;20165;-76
2021/03/12 03:12:50;;;;;;;15.00;3.40;;;;;;;7.90;96.17;99198.91;4973366;28;20031;-76
2021/03/12 03:15:18;;;;;;;13.10;3.38;;;;;;;7.93;96.53;99206.22;4981948;28;20030;-76
2021/03/12 03:17:45;;;;;;;12.63;3.55;;;;;;;7.82;97.28;99200.75;4990190;28;20030;-76
2021/03/12 03:20:15;;;;;;;15.70;4.07;;;;;;;7.83;97.94;99209.56;4973526;28;20027;-76
2021/03/12 03:22:44;;;;;;;12.98;3.75;;;;;;;7.84;97.84;99208.44;4986343;28;20039;-76
2021/03/12 03:25:12;;;;;;;16.60;4.15;;;;;;;7.77;97.53;99209.16;4972299;28;20030;-76
2021/03/12 03:27:39;;;;;;;15.20;3.42;;;;;;;7.71;97.73;99210.63;4987797;28;20039;-76
2021/03/12 03:30:05;;;;;;;10.18;3.40;;;;;;;7.67;97.64;99212.50;4988451;28;20117;-76
2021/03/12 03:32:31;;;;;;;11.75;3.40;;;;;;;7.76;98.43;99214.88;4968994;28;20042;-76
2021/03/12 03:34:57;;;;;;;12.52;3.53;;;;;;;7.82;97.53;99210.72;4984917;28;20039;-76
2021/03/12 03:37:22;;;;;;;12.77;3.97;;;;;;;7.84;97.05;99219.16;4974953;28;20031;-76
2021/03/12 03:39:48;;;;;;;16.88;4.18;;;;;;;7.86;97.19;99216.84;4974020;28;20117;-76
2021/03/12 03:42:14;;;;;;;11.18;3.55;;;;;;;7.90;96.48;99228.38;4974875;28;20039;-76
2021/03/12 03:44:42;;;;;;;12.13;3.60;;;;;;;7.94;96.42;99229.16;4973819;28;20046;-76
2021/03/12 03:47:11;;;;;;;11.77;3.85;;;;;;;7.88;97.00;99236.78;4973469;28;20046;-76
2021/03/12 03:49:40;;;;;;;12.75;3.55;;;;;;;8.00;96.48;99241.09;4970741;28;20526;-76
2021/03/12 03:52:08;;;;;;;18.55;3.58;;;;;;;8.00;96.36;99238.41;4983313;28;20065;-76
2021/03/12 03:54:41;;;;;;;11.73;3.90;;;;;;;8.05;96.00;99235.41;4960777;28;20069;-76
2021/03/12 03:57:12;;;;;;;15.40;3.72;;;;;;;8.02;95.88;99242.25;4972477;28;20064;-76
2021/03/12 03:59:40;;;;;;;10.63;3.97;;;;;;;8.03;95.73;99226.97;4974785;28;20487;-76
2021/03/12 04:02:09;;;;;;;13.13;3.33;;;;;;;7.95;95.96;99241.44;4994314;28;20082;-76
2021/03/12 04:04:36;;;;;;;10.43;3.70;;;;;;;7.86;96.49;99246.34;4961389;28;20807;-76
2021/03/12 04:07:05;;;;;;;13.45;3.78;;;;;;;7.89;95.74;99237.56;4973282;28;20114;-76
2021/03/12 04:09:31;;;;;;;21.50;3.80;;;;;;;7.93;95.50;99243.72;4969668;28;20105;-76
2021/03/12 04:11:59;;;;;;;9.80;3.75;;;;;;;7.90;95.48;99255.19;4973161;28;20043;-76
2021/03/12 04:14:26;;;;;;;16.73;3.85;;;;;;;7.88;95.44;99254.78;4973034;28;20499;-76
2021/03/12 04:16:53;;;;;;;9.63;3.40;;;;;;;7.87;95.04;99258.59;4972410;28;20039;-75
2021/03/12 04:19:20;;;;;;;11.00;3.30;;;;;;;8.00;94.75;99265.22;4989357;28;20057;-76
2021/03/12 04:21:47;;;;;;;13.20;3.80;;;;;;;8.04;94.35;99274.84;4973191;28;20034;-76
2021/03/12 04:24:14;;;;;;;12.30;3.20;;;;;;;8.01;93.73;99282.84;4954208;28;20026;-76
2021/03/12 04:26:40;;;;;;;18.38;3.60;;;;;;;7.90;93.83;99281.97;4970941;28;20082;-76
2021/03/12 04:29:07;;;;;;;16.08;3.90;;;;;;;7.83;94.16;99290.75;4972325;28;20034;-76
2021/03/12 04:31:36;;;;;;;12.18;3.42;;;;;;;8.00;93.55;99292.00;4972492;28;20115;-76
2021/03/12 04:34:04;;;;;;;12.40;3.10;;;;;;;8.00;93.63;99297.38;4971075;28;20394;-76
2021/03/12 04:36:31;;;;;;;11.45;3.20;;;;;;;8.02;92.43;99301.25;4971071;28;20042;-76
2021/03/12 04:39:00;;;;;;;11.77;3.45;;;;;;;8.10;92.26;99300.16;4968761;28;20129;-76
2021/03/12 04:41:26;;;;;;;12.07;3.45;;;;;;;8.00;92.25;99308.09;4972517;28;20162;-76
2021/03/12 04:43:52;;;;;;;6.38;2.80;;;;;;;7.89;92.78;99296.53;4979154;28;20027;-76
2021/03/12 04:46:19;;;;;;;10.63;3.55;;;;;;;7.87;92.20;99317.56;4972430;28;20030;-76
2021/03/12 04:48:50;;;;;;;10.90;2.85;;;;;;;7.86;92.80;99316.00;4969910;28;20042;-76
2021/03/12 04:51:20;;;;;;;11.18;2.90;;;;;;;8.01;91.44;99318.44;4970896;28;20049;-76
2021/03/12 04:53:49;;;;;;;13.48;3.00;;;;;;;8.04;91.48;99325.75;4967394;28;20037;-76
2021/03/12 04:56:17;;;;;;;13.15;3.35;;;;;;;7.94;91.69;99331.78;4983395;28;20042;-76
2021/03/12 04:58:45;;;;;;;11.65;3.00;;;;;;;8.02;90.73;99328.03;4957802;28;20062;-75
2021/03/12 05:01:11;;;;;;;11.30;2.72;;;;;;;7.97;91.09;99324.94;4971101;28;20532;-76
2021/03/12 05:03:39;;;;;;;7.20;2.47;;;;;;;7.93;90.84;99332.16;4969464;28;20042;-76
2021/03/12 05:06:08;;;;;;;12.27;3.30;;;;;;;7.87;90.82;99347.81;4984737;28;20507;-76
2021/03/12 05:08:36;;;;;;;11.77;3.17;;;;;;;8.01;90.63;99345.25;4964896;28;20031;-76
2021/03/12 05:11:09;;;;;;;14.15;2.90;;;;;;;8.04;89.94;99349.13;4987011;28;20034;-76
2021/03/12 05:13:56;;;;;;;11.43;3.00;;;;;;;8.05;89.56;99345.31;4971838;28;20054;-76
2021/03/12 05:16:27;;;;;;;13.07;2.75;;;;;;;8.02;89.24;99348.72;4969384;28;20046;-76
2021/03/12 05:18:55;;;;;;;12.88;2.70;;;;;;;7.90;89.14;99352.44;4968131;28;20031;-76
2021/03/12 05:21:21;;;;;;;8.75;3.08;;;;;;;7.85;89.03;99365.41;4966891;28;20053;-76
2021/03/12 05:23:47;;;;;;;10.82;2.78;;;;;;;7.88;89.37;99376.16;4969080;28;20081;-76
2021/03/12 05:26:13;;;;;;;12.02;2.47;;;;;;;8.01;88.08;99374.00;4966419;28;20034;-76
2021/03/12 05:28:39;;;;;;;11.02;2.50;;;;;;;7.97;87.76;99373.19;4964453;28;20041;-76
2021/03/12 05:31:04;;;;;;;16.55;2.75;;;;;;;7.86;86.76;99369.59;4957766;28;20039;-76
2021/03/12 05:33:30;;;;;;;14.85;2.42;;;;;;;7.77;87.57;99379.84;4983890;28;20038;-76
2021/03/12 05:35:58;;;;;;;18.55;2.85;;;;;;;7.85;87.10;99384.16;4970514;28;20113;-76
2021/03/12 05:38:25;;;;;;;10.63;2.13;;;;;;;7.85;86.08;99389.50;4984079;28;20030;-76
2021/03/12 05:40:51;;;;;;;10.85;2.45;;;;;;;7.79;86.59;99388.31;4969576;28;20096;-76
2021/03/12 05:43:18;;;;;;;10.10;2.03;;;;;;;7.90;86.26;99400.66;4984039;28;20035;-76
2021/03/12 05:45:44;;;;;;;9.48;3.03;;;;;;;7.86;86.66;99402.53;4969300;28;20396;-76
2021/03/12 05:48:14;;;;;;;21.70;2.75;;;;;;;7.90;86.26;99408.72;4965976;28;20058;-76
2021/03/12 05:50:40;;;;;;;12.70;2.47;;;;;;;7.97;86.23;99413.38;4970140;28;20042;-76
2021/03/12 05:53:09;;;;;;;13.65;2.05;;;;;;;8.01;85.59;99416.88;4968439;28;20027;-76
2021/03/12 05:55:37;;;;;;;12.50;2.50;;;;;;;7.99;85.68;99409.19;4971210;28;20042;-76
2021/03/12 05:58:04;;;;;;;15.80;2.35;;;;;;;7.89;85.84;99417.91;4980672;28;20035;-76
2021/03/12 06:00:29;;;;;;;7.78;2.67;;;;;;;8.01;85.36;99435.63;4961891;28;22146;-76
2021/03/12 06:02:57;;;;;;;10.88;3.03;;;;;;;7.88;85.86;99427.06;4966845;28;20117;-76
2021/03/12 06:05:30;;;;;;;6.47;1.92;;;;;;;7.78;85.90;99433.06;4974686;28;20027;-76
2021/03/12 06:07:56;;;;;;;11.20;2.40;;;;;;;7.86;85.24;99431.25;4968967;28;20043;-76
2021/03/12 06:10:24;;;;;;;7.38;2.00;;;;;;;7.88;85.10;99439.69;4965188;28;20035;-76
2021/03/12 06:12:55;;;;;;;9.18;2.17;;;;;;;7.97;84.59;99438.28;4979078;28;20031;-76
2021/03/12 06:15:36;;;;;;;12.15;2.63;;;;;;;7.86;84.61;99441.97;4976412;28;20035;-76
2021/03/12 06:18:26;;;;;;;9.23;2.42;;;;;;;7.89;84.55;99441.25;4969965;28;20126;-76
2021/03/12 06:21:01;;;;;;;11.30;2.45;;;;;;;7.93;83.96;99450.88;4982524;28;20037;-76
2021/03/12 06:23:33;;;;;;;16.52;2.65;;;;;;;7.90;84.19;99461.53;4982741;28;20039;-76
2021/03/12 06:26:03;;;;;;;10.57;2.60;;;;;;;8.04;83.58;99461.69;4967233;28;20035;-76
2021/03/12 06:28:38;;;;;;;7.25;2.22;;;;;;;7.93;83.78;99476.91;4984359;28;20039;-76
2021/03/12 06:31:32;;;;;;;8.57;2.55;;;;;;;7.94;83.55;99473.06;4983554;28;20077;-76
2021/03/12 06:34:09;;;;;;;10.60;2.47;;;;;;;7.82;84.03;99476.00;4967459;28;20039;-76
2021/03/12 06:36:48;;;;;;;12.15;2.33;;;;;;;7.94;84.12;99479.22;4938844;28;20508;-76
2021/03/12 06:39:30;;;;;;;10.30;2.38;;;;;;;8.00;83.95;99491.16;4969495;28;20038;-76
2021/03/12 06:42:08;;;;;;;17.13;2.78;;;;;;;8.10;83.96;99490.50;4971018;28;20039;-76
2021/03/12 06:44:37;;;;;;;15.95;2.90;;;;;;;8.09;84.39;99496.25;4960642;28;20023;-76
2021/03/12 06:47:12;;;;;;;14.07;3.10;;;;;;;8.09;84.26;99485.50;4971908;28;20117;-76
2021/03/12 06:49:59;;;;;;;7.30;2.30;;;;;;;8.06;84.29;99505.00;4961323;28;20254;-75
2021/03/12 06:52:36;;;;;;;14.85;2.65;;;;;;;8.13;83.93;99497.03;4977278;28;20030;-76
2021/03/12 06:55:08;;;;;;;15.25;2.60;;;;;;;8.06;83.65;99495.06;4967399;28;20064;-76
2021/03/12 06:58:07;;;;;;;10.82;2.30;;;;;;;8.00;82.99;99506.47;4950648;28;20174;-75
2021/03/12 07:00:34;;;;;;;13.52;2.80;;;;;;;7.91;82.45;99514.00;4964171;28;20046;-76
2021/03/12 07:03:27;;;;;;;8.73;2.17;;;;;;;7.96;82.30;99519.03;4966574;28;20066;-76
2021/03/12 07:06:16;;;;;;;10.55;2.28;;;;;;;7.92;82.64;99527.03;4967022;28;20481;-76
2021/03/12 07:08:48;;;;;;;11.88;2.13;;;;;;;8.06;81.89;99527.22;4966067;28;20510;-76
2021/03/12 07:11:43;;;;;;;8.05;1.88;;;;;;;8.10;82.60;99529.94;4962205;28;20055;-76
2021/03/12 07:14:28;;;;;;;9.00;2.38;;;;;;;8.13;82.17;99538.03;4970379;28;20050;-76
2021/03/12 07:17:01;;;;;;;9.80;2.17;;;;;;;8.16;81.94;99533.84;4951317;28;20035;-76
2021/03/12 07:19:28;;;;;;;9.30;3.08;;;;;;;8.34;82.03;99540.22;4964362;28;20035;-76
2021/03/12 07:21:58;;;;;;;9.10;2.40;;;;;;;8.44;80.50;99546.84;4975025;28;20023;-76
2021/03/12 07:24:28;;;;;;;8.50;2.13;;;;;;;8.51;79.63;99530.81;4967097;28;20046;-76
2021/03/12 07:26:57;;;;;;;7.00;1.90;;;;;;;8.51;79.38;99546.91;4965272;28;20031;-76
2021/03/12 07:29:28;;;;;;;8.80;2.35;;;;;;;8.55;78.99;99561.91;4986092;28;20031;-76
2021/03/12 07:32:08;;;;;;;7.50;1.95;;;;;;;8.50;78.95;99567.56;4985731;28;20026;-76
2021/03/12 07:34:39;;;;;;;8.30;1.92;;;;;;;8.28;78.79;99573.09;4966811;28;20030;-76
2021/03/12 07:37:19;;;;;;;13.43;2.50;;;;;;;8.39;79.48;99572.06;4976001;28;20071;-77
2021/03/12 07:39:46;;;;;;;9.55;2.13;;;;;;;8.34;79.63;99574.31;4980025;28;20031;-75
2021/03/12 07:42:19;;;;;;;11.93;2.15;;;;;;;8.36;79.49;99562.09;4985463;28;20070;-77
2021/03/12 07:45:04;;;;;;;9.20;2.00;;;;;;;8.45;79.44;99583.25;4978868;28;20039;-78
2021/03/12 07:47:56;;;;;;;12.98;2.03;;;;;;;8.48;79.61;99574.47;4971304;28;20042;-78
2021/03/12 07:50:35;;;;;;;14.45;2.15;;;;;;;8.41;79.72;99585.09;4958766;28;20039;-79
2021/03/12 07:53:05;;;;;;;10.40;1.95;;;;;;;8.44;79.90;99589.75;4971056;28;20070;-75
2021/03/12 07:55:55;;;;;;;11.60;2.40;;;;;;;8.55;80.10;99587.94;4974699;28;20046;-78
2021/03/12 07:59:00;;;;;;;7.90;1.83;;;;;;;8.67;79.31;99601.88;4972227;28;20050;-78
2021/03/12 08:01:50;;;;;;;11.07;2.03;;;;;;;8.65;79.28;99606.09;4970705;28;20126;-79
2021/03/12 08:04:34;;;;;;;7.78;1.75;;;;;;;8.73;78.63;99605.03;4971068;28;20027;-79
2021/03/12 08:07:16;;;;;;;8.25;1.95;;;;;;;8.75;78.97;99600.81;4995246;28;20061;-77
2021/03/12 08:09:42;;;;;;;12.90;1.90;;;;;;;8.71;79.27;99607.31;4970623;28;20114;-75
2021/03/12 08:12:29;;;;;;;10.50;2.10;;;;;;;8.71;79.27;99616.09;4971967;28;20027;-77
2021/03/12 08:15:19;;;;;;;11.70;1.75;;;;;;;8.70;79.21;99606.53;4973972;28;20105;-78
2021/03/12 08:17:57;;;;;;;10.27;1.77;;;;;;;8.73;79.26;99605.03;4969291;28;20510;-79
2021/03/12 08:20:45;;;;;;;8.35;1.88;;;;;;;8.63;79.24;99613.72;4989691;28;20038;-79
2021/03/12 08:23:34;;;;;;;9.45;1.80;;;;;;;8.66;79.57;99608.41;4971319;28;20035;-77
2021/03/12 08:26:05;;;;;;;6.72;1.45;;;;;;;8.79;79.27;99606.22;4970378;28;20038;-78
2021/03/12 08:29:33;;;;;;;9.88;2.30;;;;;;;8.85;78.73;99610.09;4972067;28;20129;-76
2021/03/12 08:31:59;;;;;;;9.88;2.05;;;;;;;8.83;78.19;99615.06;4959235;28;20038;-77
2021/03/12 08:34:42;;;;;;;8.27;1.90;;;;;;;9.13;77.93;99620.34;4973104;28;20053;-76
2021/03/12 08:37:25;;;;;;;4.75;1.77;;;;;;;9.55;77.48;99616.09;4963632;28;20093;-76
2021/03/12 08:40:15;;;;;;;12.65;1.80;;;;;;;9.99;75.27;99610.63;4976755;28;20043;-78
2021/03/12 08:43:03;;;;;;;7.43;1.75;;;;;;;10.10;72.67;99634.91;4962012;28;20065;-77
2021/03/12 08:45:54;;;;;;;7.47;2.10;;;;;;;9.82;73.84;99636.25;4960375;28;20121;-78
2021/03/12 08:48:33;;;;;;;8.57;1.70;;;;;;;9.75;74.03;99636.22;4961728;28;20050;-77
2021/03/12 08:51:22;;;;;;;6.45;1.80;;;;;;;9.68;74.81;99635.38;4966152;28;20030;-77
2021/03/12 08:53:54;;;;;;;7.30;1.90;;;;;;;9.73;74.29;99626.97;4987028;28;20058;-76
2021/03/12 08:56:28;;;;;;;7.03;1.83;;;;;;;9.63;74.36;99633.06;4967482;28;20077;-76
2021/03/12 08:58:55;;;;;;;8.38;1.75;;;;;;;9.60;74.98;99633.81;5005637;23;20050;-73
2021/03/12 09:01:40;;;;;;;6.75;1.58;;;;;;;9.65;75.28;99636.91;4949530;28;20570;-73
2021/03/12 09:04:14;;;;;;;7.10;1.95;;;;;;;9.56;75.72;99638.38;4970496;28;20093;-73
2021/03/12 09:06:40;;;;;;;8.30;1.90;;;;;;;9.72;74.14;99634.28;4956179;28;20047;-73
2021/03/12 09:09:16;;;;;;;8.85;1.50;;;;;;;9.76;74.22;99636.97;4964240;28;20585;-73
2021/03/12 09:11:54;;;;;;;7.55;2.00;;;;;;;9.94;73.69;99645.94;4976263;28;20047;-73
2021/03/12 09:14:21;;;;;;;9.15;1.70;;;;;;;9.81;72.81;99640.09;4967883;28;20434;-73
2021/03/12 09:16:47;;;;;;;6.15;1.73;;;;;;;9.84;73.17;99643.94;4961240;28;20075;-73
2021/03/12 09:19:16;;;;;;;7.50;1.85;;;;;;;9.67;73.55;99642.69;4966607;28;20050;-73
2021/03/12 09:22:02;;;;;;;8.82;2.20;;;;;;;9.81;74.64;99639.34;4962670;28;20075;-73
2021/03/12 09:24:37;;;;;;;10.32;2.00;;;;;;;10.27;72.87;99653.84;4956591;28;20030;-73
2021/03/12 09:27:03;;;;;;;7.28;2.03;;;;;;;10.74;71.33;99640.19;4945222;28;20041;-72
2021/03/12 09:29:46;;;;;;;11.98;2.20;;;;;;;10.99;67.59;99648.34;4971082;28;20030;-73
2021/03/12 09:32:16;;;;;;;10.57;2.03;;;;;;;10.67;66.82;99659.00;4974781;28;20076;-73
2021/03/12 09:34:53;;;;;;;11.75;2.28;;;;;;;10.67;67.25;99652.84;4966329;28;20050;-73
2021/03/12 09:37:40;;;;;;;10.52;2.42;;;;;;;10.80;68.31;99643.28;4969644;28;20034;-73
2021/03/12 09:40:31;;;;;;;10.32;2.10;;;;;;;10.79;66.67;99647.91;4971610;28;20392;-73
2021/03/12 09:43:07;;;;;;;9.18;2.53;;;;;;;10.81;66.96;99656.38;4983409;28;20035;-73
2021/03/12 09:45:47;;;;;;;5.95;2.30;;;;;;;10.66;65.62;99660.19;4980886;28;20041;-73
2021/03/12 09:48:35;;;;;;;12.95;2.22;;;;;;;10.59;66.95;99657.44;4966354;28;20035;-73
2021/03/12 09:51:08;;;;;;;7.82;2.20;;;;;;;10.49;67.00;99663.53;4968138;28;20069;-73
2021/03/12 09:53:37;;;;;;;12.20;2.80;;;;;;;10.31;68.63;99668.09;4958175;28;20177;-73
2021/03/12 09:56:12;;;;;;;10.45;3.13;;;;;;;9.91;70.08;99644.00;4960850;28;20065;-73
2021/03/12 09:58:44;;;;;;;6.50;2.60;;;;;;;9.76;70.34;99659.25;4962230;28;20030;-73
2021/03/12 10:01:35;;;;;;;11.95;3.10;;;;;;;9.69;72.16;99664.59;4953208;28;20053;-73
2021/03/12 10:04:29;;;;;;;9.13;2.83;;;;;;;9.76;74.47;99659.25;4973480;28;20023;-73
2021/03/12 10:07:10;;;;;;;9.35;3.00;;;;;;;9.76;74.45;99661.16;4956266;28;20495;-73
2021/03/12 10:09:54;;;;;;;11.75;2.92;;;;;;;9.91;74.46;99670.91;4965385;28;20034;-75
2021/03/12 10:12:40;;;;;;;8.82;2.88;;;;;;;10.01;73.67;99651.34;4970074;28;20039;-73
2021/03/12 10:15:13;;;;;;;6.25;2.60;;;;;;;10.10;73.17;99657.22;4967591;28;20397;-73
2021/03/12 10:17:49;;;;;;;8.75;3.08;;;;;;;10.30;70.96;99653.06;4971169;28;20027;-73
2021/03/12 10:20:20;;;;;;;8.30;2.75;;;;;;;10.65;72.13;99645.16;4969473;28;20204;-73
2021/03/12 10:22:50;;;;;;;9.07;2.83;;;;;;;11.18;68.79;99649.91;4959002;28;20458;-73
2021/03/12 10:25:23;;;;;;;10.95;2.80;;;;;;;11.51;66.09;99646.84;4960478;28;20170;-75
2021/03/12 10:28:00;;;;;;;8.88;2.80;;;;;;;11.64;65.62;99642.59;4960054;28;20054;-75
2021/03/12 10:30:34;;;;;;;7.18;2.75;;;;;;;11.75;64.51;99656.88;4958483;28;20484;-74
2021/03/12 10:33:03;;;;;;;9.05;2.50;;;;;;;11.51;64.73;99658.41;4964506;28;20041;-72
2021/03/12 10:35:32;;;;;;;12.10;3.08;;;;;;;11.30;63.15;99646.84;4963740;28;20039;-74
2021/03/12 10:38:04;;;;;;;8.70;2.75;;;;;;;11.04;63.41;99653.34;4965415;28;20093;-73
2021/03/12 10:40:36;;;;;;;8.43;2.90;;;;;;;10.86;65.05;99656.00;4961937;28;20035;-73
2021/03/12 10:43:30;;;;;;;8.23;2.45;;;;;;;10.76;65.22;99648.66;4961775;28;20754;-72
2021/03/12 10:46:07;;;;;;;8.75;2.70;;;;;;;10.58;65.01;99647.06;4967845;28;20030;-73
2021/03/12 10:48:43;;;;;;;7.32;2.40;;;;;;;10.66;66.05;99660.19;4962720;28;20042;-71
2021/03/12 10:51:09;;;;;;;8.43;2.97;;;;;;;10.42;64.59;99668.91;4981805;28;20034;-73
2021/03/12 10:53:52;;;;;;;7.47;2.65;;;;;;;10.42;64.64;99650.06;4969154;28;20035;-73
2021/03/12 10:56:19;;;;;;;10.20;2.47;;;;;;;10.51;64.66;99661.25;4985237;28;20053;-72
2021/03/12 10:58:45;;;;;;;7.40;2.67;;;;;;;10.46;64.60;99653.53;4969140;28;20038;-72
2021/03/12 11:01:26;;;;;;;10.93;2.80;;;;;;;10.56;64.80;99657.44;4967235;28;20074;-72
2021/03/12 11:03:53;;;;;;;9.35;2.75;;;;;;;10.78;64.07;99659.06;4970028;28;20117;-72
2021/03/12 11:06:21;;;;;;;8.43;2.53;;;;;;;10.53;64.61;99656.25;4970207;28;20108;-72
2021/03/12 11:08:47;;;;;;;10.10;2.83;;;;;;;10.68;65.37;99657.84;4986431;28;20406;-72
2021/03/12 11:11:22;;;;;;;7.95;2.67;;;;;;;10.73;65.71;99656.72;4972931;28;20030;-72
2021/03/12 11:13:49;;;;;;;10.00;2.83;;;;;;;10.83;66.17;99650.59;4974555;28;20046;-72
2021/03/12 11:16:15;;;;;;;7.03;2.65;;;;;;;10.94;66.01;99650.63;4966700;28;20037;-72
2021/03/12 11:18:40;;;;;;;5.53;2.80;;;;;;;10.90;65.76;99647.91;4970275;28;20043;-72
2021/03/12 11:21:08;;;;;;;12.25;3.05;;;;;;;10.88;65.32;99640.22;4968576;28;20487;-73
2021/03/12 11:23:34;;;;;;;12.65;3.33;;;;;;;10.83;64.76;99639.81;4972882;28;20447;-72
2021/03/12 11:26:00;;;;;;;8.55;2.67;;;;;;;10.78;65.75;99649.03;4974220;28;20125;-71
2021/03/12 11:28:26;;;;;;;10.20;2.70;;;;;;;10.79;65.89;99645.22;4970139;28;20176;-71
2021/03/12 11:30:59;;;;;;;8.73;3.00;;;;;;;10.76;65.52;99647.91;4973214;28;20046;-72
2021/03/12 11:33:25;;;;;;;12.13;3.15;;;;;;;10.85;65.51;99634.84;4970785;28;20026;-72
2021/03/12 11:35:51;;;;;;;12.00;3.47;;;;;;;10.64;66.54;99643.63;4971743;28;20442;-72
2021/03/12 11:38:18;;;;;;;10.43;3.00;;;;;;;10.59;66.26;99645.88;4972839;28;20062;-73
2021/03/12 11:40:43;;;;;;;10.85;3.20;;;;;;;10.56;66.99;99641.28;4964433;28;20399;-72
2021/03/12 11:43:09;;;;;;;11.30;3.10;;;;;;;10.34;67.72;99645.81;4967882;28;20162;-72
2021/03/12 11:45:36;;;;;;;9.68;2.80;;;;;;;10.45;67.97;99649.28;4971067;28;20129;-71
2021/03/12 11:48:03;;;;;;;6.60;2.88;;;;;;;10.46;67.92;99642.00;4968431;28;20058;-72
2021/03/12 11:50:31;;;;;;;13.20;3.17;;;;;;;10.45;67.55;99635.84;4970742;28;20038;-72
2021/03/12 11:52:56;;;;;;;10.60;2.53;;;;;;;10.39;67.43;99637.38;4970189;28;20035;-72
2021/03/12 11:55:22;;;;;;;9.40;2.60;;;;;;;10.26;67.93;99628.06;4971159;28;20039;-72
2021/03/12 11:57:48;;;;;;;9.88;3.08;;;;;;;10.18;68.06;99639.94;4967971;28;20035;-73
2021/03/12 12:00:15;;;;;;;8.32;2.50;;;;;;;10.16;68.63;99636.88;4968829;28;20114;-72
2021/03/12 12:02:41;;;;;;;10.20;2.90;;;;;;;10.22;69.14;99642.69;4972565;28;20045;-72